Time;durP1;ratioP1;P1;durP2;ratioP2;P2;SDS_P1;SDS_P2;PMS_P1;PMS_P2;Temp;Humidity;BMP_temperature;BMP_pressure;BME280_temperature;BME280_humidity;BME280_pressure;Samples;Min_cycle;Max_cycle;Signal;HPM_P1;HPM_P2
2021/03/08 00:01:35;;;;;;;1.02;0.30;;;-2.40;99.90;;;;;;4801711;28;20105;-80
2021/03/08 00:03:57;;;;;;;4.38;0.82;;;-2.40;99.90;;;;;;4820783;28;20570;-82
2021/03/08 00:06:21;;;;;;;4.35;0.68;;;-2.50;99.90;;;;;;4811532;28;20092;-83
2021/03/08 00:08:44;;;;;;;4.05;0.55;;;-2.60;99.90;;;;;;4812214;28;20101;-82
2021/03/08 00:11:07;;;;;;;4.03;0.70;;;-2.60;99.90;;;;;;4813996;28;20106;-82
2021/03/08 00:13:29;;;;;;;3.55;0.80;;;-2.60;99.90;;;;;;4812197;28;20131;-83
2021/03/08 00:15:52;;;;;;;7.95;0.73;;;-2.50;99.90;;;;;;4819551;28;20104;-80
2021/03/08 00:18:14;;;;;;;4.93;0.57;;;-0.80;99.90;;;;;;4813594;28;20103;-83
2021/03/08 00:20:37;;;;;;;2.08;0.43;;;-2.30;99.90;;;;;;4804934;28;20100;-80
2021/03/08 00:23:00;;;;;;;3.88;0.70;;;-2.20;99.90;;;;;;4813948;28;20100;-80
2021/03/08 00:25:26;;;;;;;1.33;0.60;;;-2.10;99.90;;;;;;4805723;28;20105;-81
2021/03/08 00:27:49;;;;;;;2.17;0.75;;;-2.10;99.90;;;;;;4816278;28;20089;-81
2021/03/08 00:30:12;;;;;;;1.70;0.45;;;-2.20;99.90;;;;;;4811525;28;20111;-79
2021/03/08 00:32:36;;;;;;;5.22;0.47;;;-2.20;99.90;;;;;;4805689;28;20103;-82
2021/03/08 00:34:58;;;;;;;5.55;0.75;;;-2.30;99.90;;;;;;4813008;28;20103;-82
2021/03/08 00:37:21;;;;;;;2.22;0.73;;;-2.40;99.90;;;;;;4811733;28;20096;-81
2021/03/08 00:39:43;;;;;;;2.90;0.50;;;-2.40;99.90;;;;;;4812465;28;20130;-79
2021/03/08 00:42:07;;;;;;;3.05;0.38;;;-2.50;99.90;;;;;;4813291;28;20143;-80
2021/03/08 00:44:30;;;;;;;5.03;0.60;;;-2.60;99.90;;;;;;4814697;28;20140;-79
2021/03/08 00:46:52;;;;;;;1.67;0.40;;;-2.60;99.90;;;;;;4811215;28;20104;-81
2021/03/08 00:49:15;;;;;;;7.53;0.60;;;-2.70;99.90;;;;;;4812947;28;20525;-81
2021/03/08 00:51:37;;;;;;;3.10;0.60;;;-2.80;99.90;;;;;;4812270;28;20181;-80
2021/03/08 00:54:00;;;;;;;5.63;0.70;;;-2.80;99.90;;;;;;4814877;28;20136;-80
2021/03/08 00:56:22;;;;;;;3.28;0.43;;;-2.80;99.90;;;;;;4812309;28;20098;-82
2021/03/08 00:58:46;;;;;;;1.20;0.50;;;-2.90;99.90;;;;;;4812984;28;20120;-79
2021/03/08 01:01:08;;;;;;;4.88;0.80;;;-3.00;99.90;;;;;;4810346;28;20104;-80
2021/03/08 01:03:31;;;;;;;1.83;0.35;;;-3.00;99.90;;;;;;4815151;28;20099;-80
2021/03/08 01:05:53;;;;;;;8.13;0.57;;;-3.10;99.90;;;;;;4813698;28;20099;-81
2021/03/08 01:08:16;;;;;;;2.33;0.60;;;-3.10;99.90;;;;;;4812374;28;20112;-81
2021/03/08 01:10:38;;;;;;;1.30;0.60;;;-3.20;99.90;;;;;;4812240;28;20526;-82
2021/03/08 01:13:01;;;;;;;2.53;0.77;;;-3.20;99.90;;;;;;4812267;28;20104;-79
2021/03/08 01:15:25;;;;;;;4.25;0.50;;;-3.30;99.90;;;;;;4813727;28;20097;-82
2021/03/08 01:17:47;;;;;;;5.50;0.50;;;;;;;;;;4795809;28;20084;-81
2021/03/08 01:20:13;;;;;;;0.45;0.15;;;-3.40;99.90;;;;;;4811384;28;20119;-80
2021/03/08 01:22:35;;;;;;;5.60;0.50;;;-3.40;99.90;;;;;;4809780;28;20096;-80
2021/03/08 01:24:59;;;;;;;6.45;0.75;;;-3.50;99.90;;;;;;4812280;28;20108;-81
2021/03/08 01:27:22;;;;;;;1.00;0.50;;;-2.60;99.90;;;;;;4794521;28;20089;-82
2021/03/08 01:29:45;;;;;;;7.18;0.80;;;-3.60;99.90;;;;;;4811628;28;20096;-80
2021/03/08 01:32:08;;;;;;;1.60;0.47;;;-3.70;99.90;;;;;;4813443;28;20104;-80
2021/03/08 01:34:31;;;;;;;2.72;0.65;;;-3.80;99.90;;;;;;4810619;28;20533;-81
2021/03/08 01:36:53;;;;;;;3.55;0.35;;;-3.80;99.90;;;;;;4811046;28;20562;-82
2021/03/08 01:39:16;;;;;;;6.70;0.57;;;-3.90;99.90;;;;;;4811524;28;20097;-81
2021/03/08 01:41:38;;;;;;;4.13;0.35;;;-3.90;99.90;;;;;;4811495;28;20101;-81
2021/03/08 01:44:01;;;;;;;2.28;0.50;;;-3.90;99.90;;;;;;4811515;28;20105;-81
2021/03/08 01:46:23;;;;;;;3.72;0.60;;;-3.90;99.90;;;;;;4813949;28;20093;-81
2021/03/08 01:48:47;;;;;;;1.60;0.57;;;-3.90;99.90;;;;;;4812892;28;20093;-80
2021/03/08 01:51:09;;;;;;;1.95;0.45;;;-4.00;99.90;;;;;;4810816;28;20108;-81
2021/03/08 01:53:34;;;;;;;0.60;0.17;;;-4.00;99.90;;;;;;4809026;28;20101;-82
2021/03/08 01:55:57;;;;;;;1.85;0.60;;;-4.00;99.90;;;;;;4810386;28;20591;-80
2021/03/08 01:58:21;;;;;;;0.90;0.40;;;-4.00;99.90;;;;;;4812812;28;24296;-81
2021/03/08 02:00:43;;;;;;;4.15;0.45;;;-4.10;99.90;;;;;;4813391;28;20108;-81
2021/03/08 02:03:07;;;;;;;1.77;0.52;;;-4.00;99.90;;;;;;4812900;28;20119;-81
2021/03/08 02:05:31;;;;;;;5.18;0.63;;;;;;;;;;4795313;28;20100;-79
2021/03/08 02:07:54;;;;;;;1.45;0.40;;;-4.20;99.90;;;;;;4812248;28;20108;-79
2021/03/08 02:10:18;;;;;;;1.25;0.43;;;-4.20;99.90;;;;;;4813640;28;23417;-80
2021/03/08 02:12:56;;;;;;;2.30;0.45;;;-4.20;99.90;;;;;;4799633;28;20147;-80
2021/03/08 02:15:32;;;;;;;4.18;0.30;;;-4.20;99.90;;;;;;4810635;28;20089;-81
2021/03/08 02:17:58;;;;;;;;;;;-4.20;99.90;;;;;;4809722;28;20266;-79
2021/03/08 02:20:52;;;;;;;2.05;0.45;;;-4.20;99.90;;;;;;4809231;28;20071;-80
2021/03/08 02:23:43;;;;;;;4.53;0.90;;;-4.20;99.90;;;;;;4803548;28;20104;-79
2021/03/08 02:26:42;;;;;;;0.60;0.35;;;-4.30;99.90;;;;;;4811525;28;20090;-80
2021/03/08 02:29:49;;;;;;;0.50;0.38;;;-4.40;99.90;;;;;;4808472;28;20106;-79
2021/03/08 02:32:14;;;;;;;0.95;0.17;;;-4.40;99.90;;;;;;4771352;29;20104;-83
2021/03/08 02:34:44;;;;;;;2.08;0.22;;;-4.50;99.90;;;;;;4792564;28;20632;-82
2021/03/08 02:37:13;;;;;;;7.13;0.40;;;-4.40;99.90;;;;;;4802624;28;20091;-84
2021/03/08 02:39:41;;;;;;;5.35;0.57;;;-4.40;99.90;;;;;;4808968;28;20547;-82
2021/03/08 02:42:08;;;;;;;1.25;0.43;;;-4.40;99.90;;;;;;4812580;28;20108;-82
2021/03/08 02:44:36;;;;;;;0.28;0.20;;;-4.40;99.90;;;;;;4809230;28;20136;-82
2021/03/08 02:47:00;;;;;;;6.35;0.30;;;-4.40;99.90;;;;;;4810138;28;20225;-82
2021/03/08 02:49:27;;;;;;;0.47;0.30;;;-4.50;99.90;;;;;;4809642;28;20099;-82
2021/03/08 02:51:56;;;;;;;1.60;0.55;;;-4.50;99.90;;;;;;4811773;28;20161;-80
2021/03/08 02:54:21;;;;;;;2.05;0.20;;;-4.50;99.90;;;;;;4810893;28;20090;-82
2021/03/08 02:56:46;;;;;;;;;;;-4.50;99.90;;;;;;4809561;28;20609;-83
2021/03/08 02:59:11;;;;;;;0.35;0.22;;;-4.50;99.90;;;;;;4810582;28;19980;-82
2021/03/08 03:01:35;;;;;;;;;;;-4.40;99.90;;;;;;4811470;28;20107;-81
2021/03/08 03:04:00;;;;;;;0.77;0.38;;;-4.40;99.90;;;;;;4809182;28;19979;-81
2021/03/08 03:06:27;;;;;;;5.85;0.35;;;-4.40;99.90;;;;;;4808251;28;20094;-81
2021/03/08 03:08:50;;;;;;;6.43;0.30;;;-4.30;99.90;;;;;;4810810;28;20184;-80
2021/03/08 03:11:14;;;;;;;2.88;0.57;;;-4.20;99.90;;;;;;4811955;28;20565;-81
2021/03/08 03:13:38;;;;;;;2.40;0.30;;;-4.10;99.90;;;;;;4811222;28;20509;-83
2021/03/08 03:16:04;;;;;;;0.98;0.22;;;-4.10;99.90;;;;;;4811623;28;20118;-82
2021/03/08 03:18:30;;;;;;;0.52;0.20;;;-4.10;99.90;;;;;;4810454;28;20216;-80
2021/03/08 03:20:54;;;;;;;0.40;0.30;;;-4.10;99.90;;;;;;4807880;28;20106;-81
2021/03/08 03:23:17;;;;;;;3.70;0.40;;;-4.20;99.90;;;;;;4808789;28;20445;-83
2021/03/08 03:25:44;;;;;;;2.20;0.20;;;-4.20;99.90;;;;;;4810158;28;20247;-82
2021/03/08 03:28:08;;;;;;;2.10;0.25;;;-4.30;99.90;;;;;;4802156;28;20105;-82
2021/03/08 03:30:33;;;;;;;0.75;0.22;;;-4.30;99.90;;;;;;4809866;28;20444;-81
2021/03/08 03:32:56;;;;;;;6.28;0.40;;;-4.40;99.90;;;;;;4808011;28;20093;-83
2021/03/08 03:35:21;;;;;;;0.47;0.20;;;-4.40;99.90;;;;;;4812355;28;20101;-81
2021/03/08 03:37:44;;;;;;;;;;;-4.40;99.90;;;;;;4810954;28;20101;-81
2021/03/08 03:40:10;;;;;;;1.90;0.52;;;-4.40;99.90;;;;;;4808740;28;19982;-82
2021/03/08 03:42:33;;;;;;;0.32;0.20;;;-4.30;99.90;;;;;;4810675;28;20105;-82
2021/03/08 03:44:55;;;;;;;3.03;0.40;;;-4.30;99.90;;;;;;4812674;28;20097;-81
2021/03/08 03:47:18;;;;;;;0.73;0.47;;;-4.50;99.90;;;;;;4804579;28;20101;-81
2021/03/08 03:49:40;;;;;;;4.55;0.30;;;-4.50;99.90;;;;;;4814840;28;20161;-83
2021/03/08 03:52:04;;;;;;;3.88;0.30;;;-4.60;99.90;;;;;;4814490;28;20099;-82
2021/03/08 03:54:26;;;;;;;0.35;0.22;;;-4.50;99.90;;;;;;4813405;28;20098;-81
2021/03/08 03:56:55;;;;;;;3.20;0.20;;;-4.60;99.90;;;;;;4806682;28;20108;-82
2021/03/08 03:59:22;;;;;;;2.15;0.40;;;-4.60;99.90;;;;;;4812494;28;20149;-81
2021/03/08 04:01:51;;;;;;;0.10;0.10;;;-4.60;99.90;;;;;;4814310;28;20516;-81
2021/03/08 04:04:18;;;;;;;2.05;0.25;;;-4.60;99.90;;;;;;4812496;28;20238;-82
2021/03/08 04:06:48;;;;;;;1.95;0.35;;;-4.60;99.90;;;;;;4810186;28;20108;-82
2021/03/08 04:09:12;;;;;;;0.50;0.25;;;-4.60;99.90;;;;;;4812550;28;20094;-82
2021/03/08 04:11:38;;;;;;;3.80;0.17;;;-4.70;99.90;;;;;;4812543;28;20099;-82
2021/03/08 04:14:03;;;;;;;1.35;0.45;;;-4.60;99.90;;;;;;4810211;28;20121;-81
2021/03/08 04:16:25;;;;;;;;;;;-4.60;99.90;;;;;;4812206;28;20513;-81
2021/03/08 04:18:51;;;;;;;5.18;0.30;;;-4.60;99.90;;;;;;4814228;28;19974;-82
2021/03/08 04:21:14;;;;;;;;;;;-4.70;99.90;;;;;;4815412;28;20090;-81
2021/03/08 04:23:39;;;;;;;4.38;1.75;;;-4.70;99.90;;;;;;4815309;28;20380;-82
2021/03/08 04:26:02;;;;;;;23.40;5.80;;;-4.70;99.90;;;;;;4800598;28;20125;-82
2021/03/08 04:28:25;;;;;;;20.95;6.22;;;-4.60;99.90;;;;;;4813837;28;20103;-80
2021/03/08 04:30:49;;;;;;;6.05;2.45;;;-4.60;99.90;;;;;;4813843;28;20093;-82
2021/03/08 04:33:13;;;;;;;3.92;1.08;;;-4.60;99.90;;;;;;4812259;28;20125;-82
2021/03/08 04:35:37;;;;;;;4.72;0.47;;;-4.60;99.90;;;;;;4813309;28;20103;-79
2021/03/08 04:38:00;;;;;;;3.05;1.05;;;-4.60;99.90;;;;;;4811698;28;20141;-80
2021/03/08 04:40:23;;;;;;;1.30;0.68;;;-4.50;99.90;;;;;;4813213;28;20109;-80
2021/03/08 04:42:50;;;;;;;4.32;0.55;;;-4.40;99.90;;;;;;4812218;28;20093;-83
2021/03/08 04:45:16;;;;;;;2.80;0.40;;;-4.30;99.90;;;;;;4812428;28;20093;-81
2021/03/08 04:47:44;;;;;;;0.60;0.20;;;-4.30;99.90;;;;;;4813777;28;20100;-81
2021/03/08 04:50:09;;;;;;;1.42;0.85;;;-4.40;99.90;;;;;;4812870;28;20094;-81
2021/03/08 04:52:32;;;;;;;2.53;0.47;;;-4.40;99.90;;;;;;4810273;28;20094;-81
2021/03/08 04:54:55;;;;;;;1.13;0.30;;;-4.50;99.90;;;;;;4813780;28;20839;-80
2021/03/08 04:57:21;;;;;;;1.10;0.45;;;-4.50;99.90;;;;;;4812606;28;20116;-81
2021/03/08 04:59:44;;;;;;;5.22;0.38;;;-4.50;99.90;;;;;;4811165;28;20086;-81
2021/03/08 05:02:09;;;;;;;0.88;0.25;;;-4.60;99.90;;;;;;4813585;28;20104;-81
2021/03/08 05:04:37;;;;;;;2.67;0.68;;;-4.60;99.90;;;;;;4812599;28;20123;-81
2021/03/08 05:07:00;;;;;;;1.30;0.45;;;-4.60;99.90;;;;;;4809918;28;20095;-80
2021/03/08 05:09:24;;;;;;;1.75;0.45;;;-4.70;99.90;;;;;;4812851;28;20098;-80
2021/03/08 05:11:48;;;;;;;1.30;0.43;;;-4.80;99.90;;;;;;4816670;28;20155;-80
2021/03/08 05:14:13;;;;;;;2.45;0.73;;;-4.80;99.90;;;;;;4813339;28;20116;-81
2021/03/08 05:16:41;;;;;;;4.47;1.17;;;-4.80;99.90;;;;;;4811864;28;20108;-79
2021/03/08 05:19:07;;;;;;;11.90;1.10;;;-4.80;99.90;;;;;;4810889;28;20097;-80
2021/03/08 05:21:32;;;;;;;3.33;0.82;;;-4.70;99.90;;;;;;4811885;28;20524;-81
2021/03/08 05:23:57;;;;;;;1.38;0.68;;;-4.70;99.90;;;;;;4813615;28;20103;-80
2021/03/08 05:26:20;;;;;;;;;;;-4.70;99.90;;;;;;4805314;28;20592;-80
2021/03/08 05:28:43;;;;;;;2.28;0.60;;;-4.70;99.90;;;;;;4812912;28;19980;-80
2021/03/08 05:31:07;;;;;;;2.47;0.85;;;-4.60;99.90;;;;;;4812312;28;20091;-80
2021/03/08 05:33:31;;;;;;;0.82;0.45;;;-4.60;99.90;;;;;;4812458;28;20098;-80
2021/03/08 05:35:56;;;;;;;1.60;0.37;;;-4.50;99.90;;;;;;4811253;28;20101;-80
2021/03/08 05:38:22;;;;;;;7.10;0.50;;;-4.50;99.90;;;;;;4813793;28;20511;-80
2021/03/08 05:40:58;;;;;;;1.27;0.50;;;-4.50;99.90;;;;;;4811829;28;20129;-80
2021/03/08 05:43:22;;;;;;;0.95;0.30;;;-4.50;99.90;;;;;;4806315;28;20445;-78
2021/03/08 05:45:56;;;;;;;0.30;0.17;;;-4.60;99.90;;;;;;4812240;28;20106;-79
2021/03/08 05:48:34;;;;;;;0.45;0.22;;;-4.60;99.90;;;;;;4810459;28;20111;-81
2021/03/08 05:51:23;;;;;;;1.33;0.52;;;-4.60;99.90;;;;;;4811512;28;20120;-80
2021/03/08 05:54:29;;;;;;;1.85;0.20;;;-4.60;99.90;;;;;;4806839;28;20103;-80
2021/03/08 05:57:14;;;;;;;1.43;0.20;;;-4.60;99.90;;;;;;4810164;28;20141;-79
2021/03/08 06:00:02;;;;;;;2.25;0.60;;;-4.70;99.90;;;;;;4809500;28;20108;-80
2021/03/08 06:02:47;;;;;;;1.50;0.38;;;-4.70;99.90;;;;;;4810897;28;20095;-80
2021/03/08 06:06:00;;;;;;;0.38;0.20;;;-4.60;99.90;;;;;;4807621;28;20511;-81
2021/03/08 06:08:40;;;;;;;0.52;0.20;;;-4.60;99.90;;;;;;4803489;28;20093;-80
2021/03/08 06:11:08;;;;;;;10.57;0.70;;;-4.50;99.90;;;;;;4812071;28;20528;-79
2021/03/08 06:13:35;;;;;;;1.33;0.50;;;-4.50;99.90;;;;;;4810189;28;20113;-80
2021/03/08 06:16:01;;;;;;;4.15;0.63;;;-4.40;99.90;;;;;;4811337;28;20098;-80
2021/03/08 06:18:28;;;;;;;2.65;0.77;;;-4.10;99.90;;;;;;4811747;28;20096;-80
2021/03/08 06:20:55;;;;;;;9.23;1.85;;;-3.90;99.90;;;;;;4809962;28;20546;-80
2021/03/08 06:23:18;;;;;;;4.85;1.50;;;;;;;;;;4810917;28;20096;-80
2021/03/08 06:25:41;;;;;;;6.18;1.80;;;-3.20;99.90;;;;;;4813125;28;20107;-80
2021/03/08 06:28:08;;;;;;;4.93;1.25;;;-2.50;99.90;;;;;;4807935;28;20096;-80
2021/03/08 06:30:30;;;;;;;2.70;0.80;;;-2.10;99.90;;;;;;4811428;28;20098;-84
2021/03/08 06:32:54;;;;;;;5.40;1.00;;;-2.00;99.90;;;;;;4810657;28;20141;-80
2021/03/08 06:35:17;;;;;;;2.42;0.60;;;-2.00;99.90;;;;;;4810944;28;20115;-80
2021/03/08 06:37:39;;;;;;;3.25;0.80;;;-1.70;99.90;;;;;;4803087;28;20523;-79
2021/03/08 06:40:02;;;;;;;10.07;1.05;;;-1.50;99.90;;;;;;4811667;28;20091;-81
2021/03/08 06:42:25;;;;;;;2.65;0.73;;;-1.30;99.90;;;;;;4812149;28;20096;-80
2021/03/08 06:44:50;;;;;;;4.10;0.82;;;-0.80;99.90;;;;;;4808472;28;20094;-81
2021/03/08 06:47:12;;;;;;;5.90;1.05;;;-0.10;99.90;;;;;;4810204;28;20195;-82
2021/03/08 06:49:35;;;;;;;4.20;0.88;;;0.70;99.90;;;;;;4809515;28;20143;-82
2021/03/08 06:52:05;;;;;;;1.73;1.00;;;1.40;99.90;;;;;;4811026;28;20093;-82
2021/03/08 06:54:28;;;;;;;5.32;1.08;;;;;;;;;;4809668;28;20093;-82
2021/03/08 06:56:51;;;;;;;2.78;0.90;;;2.70;99.90;;;;;;4810682;28;20494;-82
2021/03/08 06:59:13;;;;;;;5.80;1.10;;;3.00;99.90;;;;;;4799911;28;20516;-84
2021/03/08 07:01:39;;;;;;;4.45;0.80;;;3.20;99.90;;;;;;4811963;28;20450;-82
2021/03/08 07:04:03;;;;;;;3.05;1.10;;;3.10;99.90;;;;;;4809418;28;20093;-82
2021/03/08 07:06:26;;;;;;;2.58;0.98;;;2.90;99.90;;;;;;4810182;28;20217;-84
2021/03/08 07:08:49;;;;;;;3.33;1.27;;;2.70;99.90;;;;;;4805998;28;20089;-85
2021/03/08 07:11:17;;;;;;;8.15;1.05;;;2.70;99.90;;;;;;4812755;28;20097;-83
2021/03/08 07:13:39;;;;;;;5.45;1.20;;;3.20;99.90;;;;;;4808598;28;20104;-83
2021/03/08 07:16:02;;;;;;;5.00;1.02;;;3.90;99.90;;;;;;4809421;28;20092;-83
2021/03/08 07:18:26;;;;;;;3.75;1.17;;;4.60;99.90;;;;;;4812456;28;20111;-81
2021/03/08 07:20:52;;;;;;;2.15;0.82;;;4.70;99.90;;;;;;4814541;28;20095;-83
2021/03/08 07:23:24;;;;;;;2.10;0.80;;;4.30;99.90;;;;;;4811565;28;20461;-82
2021/03/08 07:25:47;;;;;;;4.65;1.00;;;4.40;99.90;;;;;;4812531;28;20211;-83
2021/03/08 07:28:12;;;;;;;3.33;0.80;;;4.70;99.90;;;;;;4814255;28;20093;-85
2021/03/08 07:30:39;;;;;;;2.20;0.65;;;4.80;99.90;;;;;;4813282;28;20098;-82
2021/03/08 07:33:04;;;;;;;2.20;0.60;;;4.50;99.90;;;;;;4814573;28;20087;-82
2021/03/08 07:35:36;;;;;;;5.28;0.93;;;4.50;99.90;;;;;;4811082;28;20556;-84
2021/03/08 07:37:58;;;;;;;2.65;0.50;;;4.90;99.90;;;;;;4808364;28;20153;-81
2021/03/08 07:40:22;;;;;;;1.15;0.60;;;5.70;99.90;;;;;;4814137;28;20087;-83
2021/03/08 07:42:44;;;;;;;5.00;1.40;;;;;;;;;;4814024;28;20095;-82
2021/03/08 07:45:08;;;;;;;2.65;0.40;;;6.40;99.90;;;;;;4812821;28;20137;-83
2021/03/08 07:47:31;;;;;;;1.73;0.47;;;6.00;99.90;;;;;;4815359;28;20090;-84
2021/03/08 07:49:53;;;;;;;2.20;0.63;;;6.30;99.90;;;;;;4812264;28;20095;-80
2021/03/08 07:52:17;;;;;;;3.53;0.75;;;6.90;99.90;;;;;;4813188;28;20090;-83
2021/03/08 07:54:57;;;;;;;2.33;0.30;;;6.90;99.90;;;;;;4813002;28;20114;-82
2021/03/08 07:57:20;;;;;;;7.63;1.10;;;7.20;99.90;;;;;;4813396;28;20082;-83
2021/03/08 07:59:42;;;;;;;1.85;0.40;;;7.90;99.90;;;;;;4814112;28;20097;-82
2021/03/08 08:02:05;;;;;;;3.55;1.13;;;6.90;99.90;;;;;;4813283;28;20132;-83
2021/03/08 08:04:27;;;;;;;5.15;0.60;;;7.50;99.90;;;;;;4813794;28;20097;-82
2021/03/08 08:06:50;;;;;;;1.83;0.70;;;7.50;99.90;;;;;;4815646;28;22406;-82
2021/03/08 08:09:15;;;;;;;2.22;0.52;;;8.00;99.90;;;;;;4813820;28;20152;-81
2021/03/08 08:11:38;;;;;;;2.28;0.68;;;7.90;99.90;;;;;;4815241;28;20164;-82
2021/03/08 08:14:02;;;;;;;6.03;0.70;;;8.50;99.90;;;;;;4812111;28;20131;-82
2021/03/08 08:16:29;;;;;;;4.32;0.68;;;9.00;99.90;;;;;;4814411;28;20083;-82
2021/03/08 08:18:56;;;;;;;1.92;0.50;;;9.50;99.90;;;;;;4814466;28;20084;-82
2021/03/08 08:21:22;;;;;;;3.95;0.57;;;9.60;99.90;;;;;;4810967;28;20080;-82
2021/03/08 08:23:47;;;;;;;2.58;0.60;;;10.00;99.90;;;;;;4813485;28;20075;-81
2021/03/08 08:26:13;;;;;;;2.55;0.50;;;10.20;99.90;;;;;;4812316;28;20078;-81
2021/03/08 08:28:40;;;;;;;2.85;0.50;;;9.80;99.90;;;;;;4807574;28;20538;-81
2021/03/08 08:31:02;;;;;;;2.25;0.50;;;10.10;99.90;;;;;;4813858;28;20075;-81
2021/03/08 08:33:30;;;;;;;3.30;0.70;;;10.40;99.90;;;;;;4814904;28;20087;-82
2021/03/08 08:36:08;;;;;;;1.98;0.82;;;9.70;99.90;;;;;;4812983;28;20331;-81
2021/03/08 08:38:32;;;;;;;3.10;0.68;;;8.90;99.90;;;;;;4811534;28;20604;-80
2021/03/08 08:41:24;;;;;;;2.83;0.73;;;8.20;99.90;;;;;;4813436;28;20102;-80
2021/03/08 08:43:47;;;;;;;0.93;0.47;;;6.50;99.90;;;;;;4811950;28;20088;-80
2021/03/08 08:46:24;;;;;;;1.48;0.43;;;6.80;99.90;;;;;;4811861;28;23152;-80
2021/03/08 08:49:05;;;;;;;5.20;0.68;;;7.50;99.90;;;;;;4813756;28;20545;-79
2021/03/08 08:51:46;;;;;;;4.88;0.60;;;7.00;99.90;;;;;;4813035;28;20087;-80
2021/03/08 08:54:09;;;;;;;5.30;0.63;;;6.30;99.90;;;;;;4813912;28;20430;-82
2021/03/08 08:56:48;;;;;;;4.60;0.65;;;6.50;99.90;;;;;;4811936;28;20093;-82
2021/03/08 08:59:18;;;;;;;1.75;0.45;;;7.20;99.90;;;;;;4812416;28;20104;-80
2021/03/08 09:02:22;;;;;;;2.35;0.63;;;7.80;99.90;;;;;;4781387;28;20139;-82
2021/03/08 09:04:45;;;;;;;3.08;0.60;;;7.30;99.90;;;;;;4755873;28;20226;-79
2021/03/08 09:07:21;;;;;;;2.83;0.50;;;7.60;99.90;;;;;;4779728;28;20150;-79
2021/03/08 09:10:10;;;;;;;3.22;0.57;;;7.40;99.90;;;;;;4759030;28;20098;-80
2021/03/08 09:12:38;;;;;;;4.82;0.60;;;7.30;99.90;;;;;;4768490;28;20134;-80
2021/03/08 09:15:24;;;;;;;1.48;0.55;;;7.00;99.90;;;;;;4741183;28;20909;-79
2021/03/08 09:17:51;;;;;;;2.95;0.40;;;6.80;99.90;;;;;;4760699;28;20156;-80
2021/03/08 09:20:39;;;;;;;3.17;0.40;;;6.70;99.90;;;;;;4757763;28;20228;-80
2021/03/08 09:23:34;;;;;;;1.15;0.40;;;6.90;99.90;;;;;;4755568;28;20108;-80
2021/03/08 09:29:03;;;;;;;2.17;0.30;;;6.90;99.90;;;;;;4755712;28;20155;-83
2021/03/08 09:31:25;;;;;;;4.47;0.65;;;6.50;99.90;;;;;;4768340;28;20081;-80
2021/03/08 09:33:48;;;;;;;1.20;0.43;;;6.70;99.90;;;;;;4770109;28;20103;-79
2021/03/08 09:36:14;;;;;;;5.35;0.52;;;6.20;99.90;;;;;;4756354;28;20555;-81
2021/03/08 09:38:37;;;;;;;;;;;6.00;99.90;;;;;;4769123;28;20092;-80
2021/03/08 09:41:16;;;;;;;0.63;0.15;;;6.60;99.90;;;;;;4762684;28;19964;-80
2021/03/08 09:44:24;;;;;;;1.73;0.43;;;6.40;99.90;;;;;;4756536;28;20497;-79
2021/03/08 09:46:56;;;;;;;3.38;0.40;;;6.20;99.90;;;;;;4774619;28;20519;-78
2021/03/08 09:49:19;;;;;;;2.25;0.22;;;5.60;99.90;;;;;;4762478;28;20099;-79
2021/03/08 09:51:42;;;;;;;2.80;0.30;;;5.70;99.90;;;;;;4777691;28;20092;-78
2021/03/08 09:54:34;;;;;;;1.08;0.20;;;5.30;99.90;;;;;;4752859;28;20104;-78
2021/03/08 09:57:00;;;;;;;2.53;0.40;;;5.00;99.90;;;;;;4767757;28;20093;-79
2021/03/08 10:00:01;;;;;;;3.15;0.52;;;4.90;99.90;;;;;;4749002;28;20147;-80
2021/03/08 10:02:37;;;;;;;4.43;0.45;;;4.40;99.90;;;;;;4769558;28;20125;-79
2021/03/08 10:05:20;;;;;;;3.00;0.38;;;4.20;99.90;;;;;;4762162;28;20095;-79
2021/03/08 10:07:56;;;;;;;3.00;0.60;;;4.30;99.90;;;;;;4763991;28;20081;-80
2021/03/08 10:10:56;;;;;;;0.95;0.40;;;4.40;99.90;;;;;;4762924;28;20515;-78
2021/03/08 10:13:43;;;;;;;2.42;0.75;;;4.70;99.90;;;;;;4755763;28;20093;-80
2021/03/08 10:16:08;;;;;;;2.17;0.40;;;4.70;99.90;;;;;;4755544;28;20199;-78
2021/03/08 10:18:32;;;;;;;3.08;0.40;;;4.80;99.90;;;;;;4767872;28;20117;-79
2021/03/08 10:21:12;;;;;;;1.67;0.55;;;4.90;99.90;;;;;;4763567;28;20172;-78
2021/03/08 10:23:52;;;;;;;1.35;0.40;;;4.70;99.90;;;;;;4755813;28;20167;-80
2021/03/08 10:26:49;;;;;;;1.55;0.50;;;4.70;99.90;;;;;;4750389;28;20100;-81
2021/03/08 10:29:25;;;;;;;0.77;0.55;;;4.70;99.90;;;;;;4749808;28;20097;-79
2021/03/08 10:32:42;;;;;;;3.50;0.63;;;4.70;99.90;;;;;;4755126;28;20116;-79
2021/03/08 10:35:53;;;;;;;4.32;0.47;;;4.50;99.90;;;;;;4757787;28;20609;-80
2021/03/08 10:38:49;;;;;;;1.02;0.45;;;4.60;99.90;;;;;;4748031;28;20849;-79
2021/03/08 10:42:00;;;;;;;1.20;0.30;;;4.30;99.90;;;;;;4742139;28;20093;-79
2021/03/08 10:45:09;;;;;;;3.38;0.65;;;4.30;99.90;;;;;;4757411;28;20458;-79
2021/03/08 10:48:25;;;;;;;1.10;0.35;;;4.40;99.90;;;;;;4745409;28;20097;-79
2021/03/08 10:51:37;;;;;;;1.63;0.55;;;4.20;99.90;;;;;;4751243;28;20089;-79
2021/03/08 10:54:00;;;;;;;1.73;0.43;;;4.30;99.90;;;;;;4772687;28;20191;-79
2021/03/08 10:56:24;;;;;;;0.98;0.35;;;4.50;99.90;;;;;;4809051;28;20567;-79
2021/03/08 10:58:46;;;;;;;2.30;0.40;;;4.60;99.90;;;;;;4809856;28;20539;-80
2021/03/08 11:01:09;;;;;;;1.25;0.40;;;4.60;99.90;;;;;;4811106;28;20609;-82
2021/03/08 11:03:37;;;;;;;2.25;0.45;;;4.50;99.90;;;;;;4810369;28;20081;-81
2021/03/08 11:06:07;;;;;;;2.70;0.30;;;4.80;99.90;;;;;;4809203;28;20093;-80
2021/03/08 11:08:30;;;;;;;0.65;0.30;;;4.70;99.90;;;;;;4809311;28;20093;-79
2021/03/08 11:10:53;;;;;;;0.90;0.25;;;4.60;99.90;;;;;;4810480;28;20096;-78
2021/03/08 11:13:16;;;;;;;4.78;0.43;;;4.70;99.90;;;;;;4810488;28;20089;-82
2021/03/08 11:15:39;;;;;;;2.83;0.45;;;4.80;99.90;;;;;;4808602;28;20085;-80
2021/03/08 11:18:02;;;;;;;2.08;0.45;;;4.90;99.90;;;;;;4810464;28;20093;-79
2021/03/08 11:20:27;;;;;;;0.65;0.30;;;4.80;99.90;;;;;;4811279;28;20143;-79
2021/03/08 11:22:58;;;;;;;2.88;0.77;;;4.40;99.90;;;;;;4810899;28;20120;-78
2021/03/08 11:25:36;;;;;;;1.50;0.40;;;4.40;99.90;;;;;;4811502;28;20102;-80
2021/03/08 11:28:00;;;;;;;1.20;0.30;;;4.40;99.90;;;;;;4808376;28;20168;-80
2021/03/08 11:30:23;;;;;;;3.80;0.50;;;4.30;99.90;;;;;;4810882;28;20722;-78
2021/03/08 11:32:52;;;;;;;1.70;0.40;;;4.30;99.90;;;;;;4811899;28;20085;-80
2021/03/08 11:35:17;;;;;;;1.08;0.32;;;4.20;99.90;;;;;;4809536;28;20085;-80
2021/03/08 11:37:39;;;;;;;2.60;0.55;;;;;;;;;;4809140;28;20089;-79
2021/03/08 11:40:06;;;;;;;1.10;0.30;;;4.30;99.90;;;;;;4810832;28;20101;-78
2021/03/08 11:42:30;;;;;;;0.85;0.40;;;4.40;99.90;;;;;;4810125;28;20089;-78
2021/03/08 11:44:53;;;;;;;4.03;0.60;;;4.40;99.90;;;;;;4811020;28;20093;-78
2021/03/08 11:47:17;;;;;;;1.05;0.32;;;4.40;99.90;;;;;;4805757;28;20096;-78
2021/03/08 11:49:41;;;;;;;2.08;0.38;;;4.50;99.90;;;;;;4811001;28;20089;-80
2021/03/08 11:52:06;;;;;;;3.13;0.57;;;4.60;99.90;;;;;;4804693;28;20131;-78
2021/03/08 11:54:29;;;;;;;1.35;0.30;;;4.60;99.90;;;;;;4814619;28;20113;-78
2021/03/08 11:56:51;;;;;;;1.10;0.55;;;4.40;99.90;;;;;;4809634;28;20085;-79
2021/03/08 11:59:15;;;;;;;2.28;0.40;;;4.40;99.90;;;;;;4810203;28;20140;-79
2021/03/08 12:01:37;;;;;;;2.72;0.50;;;4.50;99.90;;;;;;4810505;28;20088;-77
2021/03/08 12:04:00;;;;;;;2.92;0.60;;;4.60;99.90;;;;;;4811712;28;20448;-81
2021/03/08 12:06:23;;;;;;;1.08;0.40;;;4.50;99.90;;;;;;4806864;28;20089;-80
2021/03/08 12:08:45;;;;;;;4.90;0.40;;;4.30;99.90;;;;;;4813668;28;20576;-77
2021/03/08 12:11:08;;;;;;;1.55;0.25;;;4.10;99.90;;;;;;4813620;28;20089;-81
2021/03/08 12:13:30;;;;;;;1.85;0.32;;;4.30;99.90;;;;;;4812216;28;20675;-81
2021/03/08 12:15:55;;;;;;;1.60;0.43;;;4.40;99.90;;;;;;4812973;28;20089;-79
2021/03/08 12:18:17;;;;;;;1.48;0.30;;;4.30;99.90;;;;;;4814309;28;20089;-80
2021/03/08 12:20:40;;;;;;;2.83;0.25;;;4.30;99.90;;;;;;4813334;28;20433;-81
2021/03/08 12:23:02;;;;;;;2.40;0.30;;;4.10;99.90;;;;;;4813626;28;20503;-78
2021/03/08 12:25:25;;;;;;;5.32;0.43;;;4.20;99.90;;;;;;4806680;28;20096;-79
2021/03/08 12:27:49;;;;;;;2.63;0.30;;;4.20;99.90;;;;;;4814461;28;20089;-79
2021/03/08 12:30:13;;;;;;;1.92;0.47;;;4.30;99.90;;;;;;4811773;28;20104;-81
2021/03/08 12:32:38;;;;;;;3.25;0.20;;;;;;;;;;4814003;28;20089;-78
2021/03/08 12:35:00;;;;;;;4.57;0.50;;;4.30;99.90;;;;;;4804177;28;20112;-80
2021/03/08 12:37:22;;;;;;;1.90;0.35;;;4.40;99.90;;;;;;4809371;28;20531;-80
2021/03/08 12:39:45;;;;;;;1.92;0.25;;;4.30;99.90;;;;;;4812695;28;20160;-79
2021/03/08 12:42:08;;;;;;;2.20;0.60;;;4.10;99.90;;;;;;4814341;28;20092;-79
2021/03/08 12:44:31;;;;;;;1.25;0.25;;;4.10;99.90;;;;;;4811383;28;20447;-80
2021/03/08 12:46:54;;;;;;;5.32;0.43;;;4.00;99.90;;;;;;4813881;28;20089;-80
2021/03/08 12:49:18;;;;;;;3.28;0.68;;;4.10;99.90;;;;;;4810971;28;20085;-83
2021/03/08 12:51:40;;;;;;;3.22;0.63;;;4.10;99.90;;;;;;4813208;28;20085;-78
2021/03/08 12:54:03;;;;;;;3.20;0.22;;;4.00;99.90;;;;;;4814487;28;20443;-80
2021/03/08 12:56:25;;;;;;;0.45;0.20;;;4.10;99.90;;;;;;4811202;28;20089;-78
2021/03/08 12:58:48;;;;;;;1.73;0.50;;;4.20;99.90;;;;;;4811887;28;20085;-81
2021/03/08 13:01:11;;;;;;;2.53;0.25;;;4.10;99.90;;;;;;4812640;28;20093;-79
2021/03/08 13:03:35;;;;;;;2.05;0.40;;;4.20;99.90;;;;;;4813227;28;20096;-78